createdAt,value
2022-12-06T00:03:17.047Z,94329.72
2022-12-06T00:08:20.898Z,94524.84
2022-12-06T00:13:26.181Z,95020.97
2022-12-06T00:18:30.938Z,94362.94
2022-12-06T00:23:36.918Z,94333.88
2022-12-06T00:28:42.771Z,94250.84
2022-12-06T00:33:46.834Z,94354.63
2022-12-06T00:38:51.282Z,94458.41
2022-12-06T00:43:56.653Z,94016.31
2022-12-06T00:49:02.378Z,94832.06
2022-12-06T00:54:06.795Z,94952.47
2022-12-06T00:59:12.622Z,95027.19
2022-12-06T01:04:16.464Z,94867.34
2022-12-06T01:09:20.284Z,94699.19
2022-12-06T01:14:25.283Z,94105.56
2022-12-06T01:19:28.794Z,94437.66
2022-12-06T01:24:32.317Z,94852.81
2022-12-06T01:29:37.519Z,94055.75
2022-12-06T01:34:41.162Z,93686.31
2022-12-06T01:39:45.121Z,93815.00
2022-12-06T01:44:51.529Z,94400.28
2022-12-06T01:50:00.048Z,94421.06
2022-12-06T01:55:07.705Z,94292.34
2022-12-06T02:00:13.510Z,94234.25
2022-12-06T02:05:18.413Z,94084.81
2022-12-06T02:10:22.005Z,93794.25
2022-12-06T02:15:40.946Z,93951.97
2022-12-06T02:20:52.189Z,93875.19
2022-12-06T02:26:25.965Z,93976.88
2022-12-06T02:31:38.266Z,93688.41
2022-12-06T02:36:50.427Z,93742.34
2022-12-06T02:41:59.772Z,93646.88
2022-12-06T02:47:06.783Z,93582.56
2022-12-06T02:52:10.309Z,93561.81
2022-12-06T02:57:13.798Z,93399.94
2022-12-06T03:02:19.094Z,93209.03
2022-12-06T03:07:33.331Z,93096.97
2022-12-06T03:12:41.300Z,92858.34
2022-12-06T03:17:51.504Z,92957.94
2022-12-06T03:23:02.362Z,92924.75
2022-12-06T03:28:08.037Z,92779.50
2022-12-06T03:33:15.135Z,92974.56
2022-12-06T03:38:23.085Z,92881.19
2022-12-06T03:43:26.601Z,92920.59
2022-12-06T03:48:36.024Z,92974.56
2022-12-06T03:53:47.988Z,92578.25
2022-12-06T03:58:51.501Z,92433.03
2022-12-06T04:03:56.392Z,92547.13
2022-12-06T04:09:19.910Z,92468.28
2022-12-06T04:14:23.382Z,92304.41
2022-12-06T04:19:28.324Z,91319.06
2022-12-06T04:24:31.995Z,91256.84
2022-12-06T04:29:53.185Z,91673.75
2022-12-06T04:35:15.582Z,91742.22
2022-12-06T04:40:18.966Z,91947.56
2022-12-06T04:45:22.460Z,91962.09
2022-12-06T04:50:27.336Z,91874.97
2022-12-06T04:55:30.804Z,92088.66
2022-12-06T05:00:34.300Z,92379.09
2022-12-06T05:05:39.350Z,92412.28
2022-12-06T05:10:42.849Z,92569.94
2022-12-06T05:15:51.390Z,92818.94
2022-12-06T05:21:04.563Z,93030.56
2022-12-06T05:26:11.962Z,92426.81
2022-12-06T05:31:16.259Z,92385.31
2022-12-06T05:36:23.098Z,92312.69
2022-12-06T05:41:26.685Z,92171.63
2022-12-06T05:46:30.278Z,92092.78
2022-12-06T05:51:35.118Z,92157.09
2022-12-06T05:56:39.892Z,92287.81
2022-12-06T06:01:43.688Z,92240.09
2022-12-06T06:06:48.572Z,92298.16
2022-12-06T06:11:52.084Z,92045.06
2022-12-06T06:16:55.517Z,92186.16
2022-12-06T06:22:00.575Z,92086.56
2022-12-06T06:27:04.515Z,92256.69
2022-12-06T06:32:08.118Z,92254.59
2022-12-06T06:37:12.969Z,91968.31
2022-12-06T06:42:17.591Z,92146.72
2022-12-06T06:47:21.155Z,91960.03
2022-12-06T06:52:26.054Z,91960.03
2022-12-06T06:57:29.751Z,91916.47
2022-12-06T07:02:33.281Z,91823.13
2022-12-06T07:07:38.172Z,91810.66
2022-12-06T07:12:41.657Z,91706.97
2022-12-06T07:17:45.138Z,91487.09
2022-12-06T07:22:49.929Z,91711.09
2022-12-06T07:27:53.475Z,91530.66
2022-12-06T07:32:56.994Z,91891.56
2022-12-06T07:38:02.685Z,91802.38
2022-12-06T07:43:23.505Z,91960.03
2022-12-06T07:48:27.552Z,91810.66
2022-12-06T07:53:32.467Z,91690.34
2022-12-06T07:58:36.059Z,91854.22
2022-12-06T08:03:39.580Z,91530.66
2022-12-06T08:08:44.590Z,91146.94
2022-12-06T08:13:48.045Z,91086.78
2022-12-06T08:18:52.628Z,91028.72
2022-12-06T08:23:57.626Z,91771.25
2022-12-06T08:29:02.337Z,91843.84
2022-12-06T08:34:06.131Z,91694.50
2022-12-06T08:39:12.406Z,91928.91
2022-12-06T08:44:17.227Z,91777.47
2022-12-06T09:59:21.532Z,87038.34
2022-12-06T10:04:47.679Z,86760.72
2022-12-06T10:10:03.682Z,86673.69
2022-12-06T10:15:32.302Z,86650.91
2022-12-06T10:20:43.931Z,86885.00
2022-12-06T10:25:56.158Z,86885.00
2022-12-06T10:31:09.247Z,85977.66
2022-12-06T10:36:20.657Z,84271.22
2022-12-06T10:41:29.739Z,82259.22
2022-12-06T10:47:01.087Z,78139.03
2022-12-06T10:52:18.786Z,77791.72
2022-12-06T10:57:30.066Z,77188.16
2022-12-06T11:02:41.561Z,77012.50
2022-12-06T11:07:49.902Z,76543.38
2022-12-06T11:12:59.480Z,76812.03
2022-12-06T11:18:11.665Z,76537.16
2022-12-06T11:23:23.713Z,75865.63
2022-12-06T11:28:38.830Z,75865.63
2022-12-06T11:33:43.940Z,72874.97
2022-12-06T11:38:48.330Z,-15260.56
2022-12-06T11:43:53.564Z,-15260.56
2022-12-06T11:49:05.773Z,-15260.56
2022-12-06T11:54:23.725Z,-15260.56
2022-12-06T11:59:29.937Z,-15260.56
2022-12-06T12:04:39.014Z,-15260.56
2022-12-06T12:09:55.057Z,-15260.56
2022-12-06T12:15:00.336Z,-15260.56
2022-12-06T12:20:09.808Z,-15260.56
2022-12-06T12:25:26.472Z,-15260.56
2022-12-06T12:30:36.403Z,-15260.56
2022-12-06T12:35:43.189Z,-15260.56
2022-12-06T12:40:50.608Z,-15260.56
2022-12-06T12:46:07.699Z,-15260.56
2022-12-06T12:51:24.477Z,-15260.56
2022-12-06T12:56:30.690Z,-15260.56
2022-12-06T13:01:39.956Z,-15260.56
2022-12-06T13:06:50.439Z,-15260.56
2022-12-06T13:12:00.155Z,-15260.56
2022-12-06T13:17:08.099Z,-15260.56
2022-12-06T13:22:20.194Z,-15260.56
2022-12-06T13:27:25.129Z,-15260.56
2022-12-06T13:32:34.282Z,-15260.56
2022-12-06T13:37:45.597Z,-15260.56
2022-12-06T13:42:49.164Z,-15260.56
2022-12-06T13:47:52.986Z,-15260.56
2022-12-06T13:53:04.237Z,-15260.56
2022-12-06T13:58:27.256Z,-15260.56
2022-12-06T14:03:41.152Z,-15260.56
2022-12-06T14:08:48.186Z,-15260.56
2022-12-06T14:14:02.504Z,-15260.56
2022-12-06T14:19:16.707Z,-15260.56
2022-12-06T14:24:31.743Z,-15260.56
2022-12-06T14:29:35.605Z,-15260.56
2022-12-06T14:34:39.410Z,-15260.56
2022-12-06T14:39:52.391Z,-15260.56
2022-12-06T14:45:01.933Z,-15260.56
2022-12-06T14:50:25.420Z,-15260.56
2022-12-06T14:55:32.697Z,-15260.56
2022-12-06T15:00:39.439Z,-15260.56
2022-12-06T15:05:44.848Z,-15262.09
2022-12-06T15:10:57.971Z,-15262.09
2022-12-06T15:16:06.276Z,-15262.09
2022-12-06T15:21:14.181Z,-15262.09
2022-12-06T15:26:20.491Z,-15262.09
2022-12-06T15:31:27.001Z,-15262.09
2022-12-06T15:36:33.302Z,-15262.09
2022-12-06T15:41:39.204Z,-15262.09
2022-12-06T15:46:43.405Z,-15262.09
2022-12-06T15:51:47.479Z,-15262.09
2022-12-06T15:56:53.274Z,-15262.09
2022-12-06T16:01:56.866Z,-15262.09
2022-12-06T16:07:00.586Z,-15262.09
2022-12-06T16:12:06.051Z,-15262.09
2022-12-06T16:17:09.931Z,79633.97
2022-12-06T16:22:13.392Z,82762.13
2022-12-06T16:27:19.557Z,83157.47
2022-12-06T16:32:23.087Z,83157.47
2022-12-06T16:37:26.606Z,83465.88
2022-12-06T16:42:31.665Z,83753.63
2022-12-06T16:47:35.162Z,83989.66
2022-12-06T16:52:38.701Z,84329.19
2022-12-06T16:57:43.857Z,84480.34
2022-12-06T17:02:48.429Z,84817.88
2022-12-06T17:07:52.550Z,85229.97
2022-12-06T17:12:57.998Z,85557.19
2022-12-06T17:18:01.608Z,85977.66
2022-12-06T17:23:05.136Z,86108.16
2022-12-06T17:28:10.212Z,86435.47
2022-12-06T17:33:13.730Z,86719.28
2022-12-06T17:38:17.410Z,87108.78
2022-12-06T17:43:22.472Z,87195.81
2022-12-06T17:48:28.659Z,87477.59
2022-12-06T17:53:35.549Z,87763.56
2022-12-06T17:58:40.552Z,87873.41
2022-12-06T18:03:44.116Z,87952.16
2022-12-06T18:08:48.477Z,88082.72
2022-12-06T18:13:55.051Z,88586.34
2022-12-06T18:19:02.663Z,88723.13
2022-12-06T18:24:31.957Z,89114.91
2022-12-06T18:29:36.930Z,89098.31
2022-12-06T18:34:40.457Z,89015.41
2022-12-06T18:39:44.009Z,89475.63
2022-12-06T18:44:51.454Z,89687.09
2022-12-06T18:49:58.637Z,89703.69
2022-12-06T18:55:02.639Z,89817.72
2022-12-06T19:00:09.434Z,89670.50
2022-12-06T19:05:12.913Z,89730.63
2022-12-06T19:10:16.517Z,89962.84
2022-12-06T19:15:21.476Z,90566.25
2022-12-06T19:20:25.231Z,90767.41
2022-12-06T19:25:28.742Z,91215.38
2022-12-06T19:30:33.721Z,91341.91
2022-12-06T19:35:37.367Z,91499.53
2022-12-06T19:40:42.144Z,91337.75
2022-12-06T19:45:47.094Z,91412.41
2022-12-06T19:50:50.554Z,91296.25
2022-12-06T19:55:54.085Z,91522.34
2022-12-06T20:00:59.370Z,91632.28
2022-12-06T20:06:04.131Z,91597.00
2022-12-06T20:11:29.792Z,91904.03
2022-12-06T20:16:36.887Z,92005.66
2022-12-06T20:21:40.490Z,91833.50
2022-12-06T20:26:44.153Z,92281.56
2022-12-06T20:31:50.011Z,92350.03
2022-12-06T20:36:53.514Z,92491.13
2022-12-06T20:41:57.116Z,92420.56
2022-12-06T20:47:02.249Z,92684.06
2022-12-06T20:52:06.879Z,92843.84
2022-12-06T20:57:11.744Z,92665.41
2022-12-06T21:02:16.687Z,92412.28
2022-12-06T21:07:21.477Z,92796.09
2022-12-06T21:12:25.078Z,92551.28
2022-12-06T21:17:33.032Z,92455.84
2022-12-06T21:22:36.674Z,92657.09
2022-12-06T21:27:40.236Z,92555.44
2022-12-06T21:32:45.142Z,92625.97
2022-12-06T21:37:48.699Z,92901.94
2022-12-06T21:42:52.175Z,92837.59
2022-12-06T21:47:57.312Z,92640.50
2022-12-06T21:53:00.898Z,92673.69
2022-12-06T21:58:04.517Z,92661.25
2022-12-06T22:03:09.557Z,92379.09
2022-12-06T22:08:13.733Z,92300.25
2022-12-06T22:13:17.292Z,92582.41
2022-12-06T22:18:22.197Z,92698.59
2022-12-06T22:23:25.734Z,92727.63
2022-12-06T22:28:29.261Z,92395.69
2022-12-06T22:33:34.899Z,92273.28
2022-12-06T22:38:38.491Z,92250.47
2022-12-06T22:43:41.910Z,92065.81
2022-12-06T22:48:47.124Z,91698.66
2022-12-06T22:53:56.031Z,91752.59
2022-12-06T22:59:00.982Z,91565.91
2022-12-06T23:04:07.619Z,91105.44
2022-12-06T23:09:15.750Z,90939.53
2022-12-06T23:14:19.266Z,90572.47
2022-12-06T23:19:24.250Z,90659.56
2022-12-06T23:24:27.889Z,90674.09
2022-12-06T23:29:31.523Z,90445.97
2022-12-06T23:34:36.386Z,90574.53
2022-12-06T23:39:39.850Z,90383.75
2022-12-06T23:44:43.391Z,90315.34
2022-12-06T23:49:48.160Z,90002.25
2022-12-06T23:54:51.625Z,89931.75
2022-12-06T23:59:55.161Z,89904.78
